createdAt,value
2019-02-25T00:01:45.153Z,98934.11
2019-02-25T00:04:41.787Z,98928.13
2019-02-25T00:07:40.570Z,98930.12
2019-02-25T00:10:36.069Z,98918.91
2019-02-25T00:13:32.823Z,98920.77
2019-02-25T00:16:28.539Z,98917.42
2019-02-25T00:19:25.478Z,98915.66
2019-02-25T00:22:21.823Z,98921.89
2019-02-25T00:25:18.349Z,98916.02
2019-02-25T00:28:15.075Z,98918.52
2019-02-25T00:31:11.464Z,98908.66
2019-02-25T00:34:06.988Z,98915.14
2019-02-25T00:37:04.489Z,98918.89
2019-02-25T00:40:00.311Z,98912.13
2019-02-25T00:42:57.012Z,98913.13
2019-02-25T00:45:51.450Z,98929.34
2019-02-25T00:48:48.612Z,98925.59
2019-02-25T00:51:43.419Z,98927.08
2019-02-25T00:54:39.917Z,98933.55
2019-02-25T00:57:36.361Z,98931.30
2019-02-25T01:00:33.012Z,98925.31
2019-02-25T01:03:28.525Z,98932.06
2019-02-25T01:06:25.767Z,98929.58
2019-02-25T01:09:22.238Z,98930.06
2019-02-25T01:12:18.760Z,98930.30
2019-02-25T01:15:14.488Z,98928.04
2019-02-25T01:18:12.126Z,98925.55
2019-02-25T01:21:09.840Z,98934.55
2019-02-25T01:24:06.361Z,98934.02
2019-02-25T01:27:02.799Z,98936.33
2019-02-25T01:29:58.519Z,98932.70
2019-02-25T01:32:56.069Z,98931.45
2019-02-25T01:35:52.831Z,98940.69
2019-02-25T01:38:49.349Z,98932.20
2019-02-25T01:41:44.831Z,98941.65
2019-02-25T01:44:41.378Z,98937.19
2019-02-25T01:47:38.116Z,98934.46
2019-02-25T01:50:34.335Z,98935.94
2019-02-25T01:53:29.747Z,98927.95
2019-02-25T01:56:27.170Z,98927.22
2019-02-25T01:59:22.254Z,98933.22
2019-02-25T02:02:18.989Z,98923.25
2019-02-25T02:05:14.696Z,98925.74
2019-02-25T02:08:12.571Z,98922.73
2019-02-25T02:11:09.129Z,98923.51
2019-02-25T02:14:05.469Z,98920.02
2019-02-25T02:17:01.769Z,98921.14
2019-02-25T02:19:57.785Z,98916.40
2019-02-25T02:22:52.354Z,98914.80
2019-02-25T02:25:49.846Z,98912.59
2019-02-25T02:28:45.414Z,98908.09
2019-02-25T02:31:41.930Z,98908.33
2019-02-25T02:34:37.422Z,98902.86
2019-02-25T02:37:34.761Z,98906.08
2019-02-25T02:40:29.892Z,98898.36
2019-02-25T02:43:26.539Z,98897.75
2019-02-25T02:46:35.567Z,98897.48
2019-02-25T02:49:32.081Z,98897.64
2019-02-25T02:52:27.488Z,98908.81
2019-02-25T02:55:23.643Z,98898.59
2019-02-25T02:58:18.996Z,98901.32
2019-02-25T03:01:15.555Z,98904.52
2019-02-25T03:04:11.259Z,98911.50
2019-02-25T03:07:08.700Z,98918.66
2019-02-25T03:10:05.063Z,98922.06
2019-02-25T03:13:02.664Z,98917.20
2019-02-25T03:15:58.155Z,98920.20
2019-02-25T03:18:55.036Z,98917.84
2019-02-25T03:21:47.389Z,98908.48
2019-02-25T03:24:43.840Z,98907.87
2019-02-25T03:27:40.321Z,98908.12
2019-02-25T03:30:38.133Z,98901.92
2019-02-25T03:33:33.675Z,98893.44
2019-02-25T03:36:30.223Z,98890.35
2019-02-25T03:39:26.103Z,98895.45
2019-02-25T03:42:22.525Z,98884.50
2019-02-25T03:45:18.223Z,98879.45
2019-02-25T03:48:15.696Z,98877.33
2019-02-25T03:51:11.174Z,98881.19
2019-02-25T03:54:07.731Z,98880.83
2019-02-25T03:57:03.107Z,98885.81
2019-02-25T03:59:59.636Z,98884.55
2019-02-25T04:02:55.344Z,98883.55
2019-02-25T04:05:51.871Z,98881.05
2019-02-25T04:08:48.574Z,98890.26
2019-02-25T04:11:44.975Z,98889.53
2019-02-25T04:14:41.563Z,98894.52
2019-02-25T04:17:38.106Z,98893.50
2019-02-25T04:20:33.833Z,98900.97
2019-02-25T04:23:30.590Z,98892.62
2019-02-25T04:26:27.767Z,98892.62
2019-02-25T04:29:25.009Z,98889.77
2019-02-25T04:32:21.774Z,98893.50
2019-02-25T04:35:18.554Z,98894.98
2019-02-25T04:38:15.301Z,98891.36
2019-02-25T04:41:10.713Z,98901.20
2019-02-25T04:44:06.889Z,98906.89
2019-02-25T04:47:01.981Z,98907.66
2019-02-25T04:49:58.737Z,98900.91
2019-02-25T04:52:53.700Z,98908.00
2019-02-25T04:55:49.924Z,98909.58
2019-02-25T04:58:45.506Z,98910.07
2019-02-25T05:01:42.081Z,98912.72
2019-02-25T05:04:37.552Z,98915.80
2019-02-25T05:07:34.056Z,98902.60
2019-02-25T05:10:30.785Z,98900.74
2019-02-25T05:13:28.225Z,98904.59
2019-02-25T05:16:24.527Z,98901.84
2019-02-25T05:19:22.056Z,98897.25
2019-02-25T05:22:17.784Z,98899.48
2019-02-25T05:25:15.308Z,98910.91
2019-02-25T05:28:10.765Z,98914.41
2019-02-25T05:31:07.296Z,98917.42
2019-02-25T05:34:02.920Z,98909.44
2019-02-25T05:36:59.051Z,98904.70
2019-02-25T05:39:55.171Z,98905.22
2019-02-25T05:42:51.721Z,98905.22
2019-02-25T05:45:47.354Z,98913.41
2019-02-25T05:48:45.032Z,98920.14
2019-02-25T05:51:40.324Z,98910.06
2019-02-25T05:54:37.107Z,98902.44
2019-02-25T05:57:32.784Z,98903.97
2019-02-25T06:00:30.933Z,98905.94
2019-02-25T06:03:27.429Z,98903.73
2019-02-25T06:06:23.835Z,98919.27
2019-02-25T06:09:21.645Z,98913.63
2019-02-25T06:12:17.378Z,98912.39
2019-02-25T06:15:13.952Z,98916.18
2019-02-25T06:18:10.598Z,98907.08
2019-02-25T06:21:08.244Z,98907.73
2019-02-25T06:24:04.812Z,98897.55
2019-02-25T06:27:01.127Z,98911.48
2019-02-25T06:29:57.704Z,98910.73
2019-02-25T06:32:54.239Z,98912.73
2019-02-25T06:35:49.775Z,98907.00
2019-02-25T06:38:46.462Z,98907.00
2019-02-25T06:41:42.836Z,98904.04
2019-02-25T06:44:39.696Z,98896.59
2019-02-25T06:47:34.598Z,98890.91
2019-02-25T06:50:31.797Z,98893.42
2019-02-25T06:53:28.945Z,98895.93
2019-02-25T06:56:23.944Z,98888.75
2019-02-25T06:59:20.343Z,98889.00
2019-02-25T07:02:15.859Z,98886.76
2019-02-25T07:05:22.115Z,98886.16
2019-02-25T07:08:23.997Z,98888.90
2019-02-25T07:11:30.409Z,98889.56
2019-02-25T07:14:36.639Z,98888.95
2019-02-25T07:17:54.276Z,98892.34
2019-02-25T07:21:05.961Z,98894.84
2019-02-25T07:24:17.277Z,98901.33
2019-02-25T07:27:24.476Z,98896.52
2019-02-25T07:30:46.081Z,98897.36
2019-02-25T07:33:57.859Z,98893.91
2019-02-25T07:37:13.730Z,98896.41
2019-02-25T07:40:22.564Z,98895.69
2019-02-25T07:43:30.930Z,98902.68
2019-02-25T07:46:48.007Z,98903.92
2019-02-25T07:49:58.560Z,98900.21
2019-02-25T07:53:15.897Z,98914.91
2019-02-25T07:56:32.820Z,98905.92
2019-02-25T07:59:58.331Z,98906.17
2019-02-25T08:03:21.514Z,98894.66
2019-02-25T08:06:37.475Z,98889.67
2019-02-25T08:09:52.161Z,98890.88
2019-02-25T08:12:57.525Z,98889.59
2019-02-25T08:16:06.235Z,98894.91
2019-02-25T08:19:23.598Z,98892.97
2019-02-25T08:22:30.214Z,98902.43
2019-02-25T08:25:40.068Z,98905.09
2019-02-25T08:28:52.723Z,98903.30
2019-02-25T08:32:01.846Z,98898.25
2019-02-25T08:35:27.686Z,98897.19
2019-02-25T08:38:40.608Z,98896.84
2019-02-25T08:41:46.001Z,98909.00
2019-02-25T08:44:46.984Z,98904.64
2019-02-25T08:48:02.748Z,98910.75
2019-02-25T08:50:56.955Z,98911.11
2019-02-25T08:53:53.699Z,98917.19
2019-02-25T08:56:50.424Z,98904.63
2019-02-25T08:59:46.277Z,98896.55
2019-02-25T09:02:44.164Z,98901.61
2019-02-25T09:05:39.172Z,98900.86
2019-02-25T09:08:35.938Z,98909.25
2019-02-25T09:11:32.590Z,98914.13
2019-02-25T09:14:30.499Z,98922.38
2019-02-25T09:17:25.914Z,98913.07
2019-02-25T09:20:22.146Z,98920.31
2019-02-25T09:23:19.933Z,98922.80
2019-02-25T09:26:17.524Z,98914.64
2019-02-25T09:29:12.147Z,98914.64
2019-02-25T09:32:12.950Z,98928.40
2019-02-25T09:35:08.718Z,98923.12
2019-02-25T09:38:06.107Z,98924.22
2019-02-25T09:41:01.600Z,98932.15
2019-02-25T09:43:59.283Z,98931.77
2019-02-25T09:46:54.856Z,98928.75
2019-02-25T09:49:51.261Z,98927.49
2019-02-25T09:52:47.051Z,98928.60
2019-02-25T09:55:43.439Z,98929.45
2019-02-25T09:58:39.496Z,98922.85
2019-02-25T10:01:42.357Z,98919.22
2019-02-25T10:04:38.792Z,98916.08
2019-02-25T10:07:35.358Z,98921.95
2019-02-25T10:10:31.092Z,98928.41
2019-02-25T10:13:28.864Z,98933.27
2019-02-25T10:16:24.432Z,98930.61
2019-02-25T10:19:21.058Z,98927.69
2019-02-25T10:22:17.694Z,98918.28
2019-02-25T10:25:14.652Z,98917.73
2019-02-25T10:28:09.533Z,98915.09
2019-02-25T10:31:07.168Z,98907.08
2019-02-25T10:34:03.777Z,98910.09
2019-02-25T10:37:00.439Z,98908.03
2019-02-25T10:39:56.248Z,98912.17
2019-02-25T10:42:52.869Z,98910.49
2019-02-25T10:45:48.477Z,98905.78
2019-02-25T10:48:44.720Z,98912.89
2019-02-25T10:51:41.167Z,98914.49
2019-02-25T10:54:37.355Z,98911.95
2019-02-25T10:57:36.052Z,98899.58
2019-02-25T11:00:35.042Z,98899.52
2019-02-25T11:03:29.959Z,98897.59
2019-02-25T11:06:27.396Z,98896.98
2019-02-25T11:09:35.713Z,98893.00
2019-02-25T11:12:32.226Z,98886.20
2019-02-25T11:15:27.699Z,98886.06
2019-02-25T11:18:26.693Z,98888.91
2019-02-25T11:21:20.783Z,98880.50
2019-02-25T11:24:20.720Z,98881.59
2019-02-25T11:27:15.973Z,98877.62
2019-02-25T11:30:14.223Z,98872.86
2019-02-25T11:33:07.610Z,98871.05
2019-02-25T11:36:04.346Z,98872.13
2019-02-25T11:39:02.117Z,98872.61
2019-02-25T11:41:56.754Z,98866.10
2019-02-25T11:44:54.275Z,98864.33
2019-02-25T11:47:49.281Z,98864.89
2019-02-25T11:50:45.115Z,98862.00
2019-02-25T11:53:40.216Z,98858.55
2019-02-25T11:56:36.807Z,98867.70
2019-02-25T11:59:32.310Z,98858.31
2019-02-25T12:02:29.156Z,98858.66
2019-02-25T12:05:25.951Z,98865.92
2019-02-25T12:08:22.077Z,98864.39
2019-02-25T12:11:17.581Z,98859.03
2019-02-25T12:14:14.140Z,98854.56
2019-02-25T12:17:10.175Z,98844.03
2019-02-25T12:20:07.963Z,98835.92
2019-02-25T12:23:03.712Z,98835.92
2019-02-25T12:26:02.508Z,98828.91
2019-02-25T12:28:59.320Z,98825.45
2019-02-25T12:31:55.824Z,98825.03
2019-02-25T12:34:52.576Z,98804.63
2019-02-25T12:37:48.768Z,98797.67
2019-02-25T12:40:44.742Z,98798.66
2019-02-25T12:43:41.027Z,98791.04
2019-02-25T12:46:37.775Z,98793.01
2019-02-25T12:49:34.439Z,98790.05
2019-02-25T12:52:30.210Z,98792.94
2019-02-25T12:55:27.726Z,98780.56
2019-02-25T12:58:23.294Z,98773.30
2019-02-25T13:01:19.832Z,98772.11
2019-02-25T13:04:15.167Z,98771.92
2019-02-25T13:07:11.396Z,98760.59
2019-02-25T13:10:06.898Z,98752.88
2019-02-25T13:13:03.606Z,98752.53
2019-02-25T13:16:01.092Z,98745.11
2019-02-25T13:18:56.565Z,98746.52
2019-02-25T13:21:52.772Z,98742.75
2019-02-25T13:24:47.902Z,98742.44
2019-02-25T13:27:45.830Z,98737.53
2019-02-25T13:30:41.859Z,98729.11
2019-02-25T13:33:38.377Z,98729.78
2019-02-25T13:36:36.297Z,98731.14
2019-02-25T13:39:32.913Z,98729.66
2019-02-25T13:42:28.433Z,98728.39
2019-02-25T13:45:25.182Z,98716.29
2019-02-25T13:48:20.672Z,98704.98
2019-02-25T13:51:17.446Z,98693.42
2019-02-25T13:54:11.930Z,98694.59
2019-02-25T13:57:09.469Z,98690.42
2019-02-25T14:00:04.955Z,98687.00
2019-02-25T14:03:03.278Z,98683.78
2019-02-25T14:05:58.029Z,98689.24
2019-02-25T14:08:55.085Z,98680.97
2019-02-25T14:11:52.214Z,98676.16
2019-02-25T14:14:48.874Z,98679.81
2019-02-25T14:17:46.009Z,98675.80
2019-02-25T14:20:42.454Z,98677.33
2019-02-25T14:23:40.545Z,98669.19
2019-02-25T14:26:38.027Z,98661.11
2019-02-25T14:29:33.055Z,98660.02
2019-02-25T14:32:30.242Z,98660.75
2019-02-25T14:35:28.221Z,98652.96
2019-02-25T14:38:23.393Z,98648.56
2019-02-25T14:41:21.068Z,98631.09
2019-02-25T14:44:15.201Z,98631.74
2019-02-25T14:47:20.609Z,98631.05
2019-02-25T14:50:08.366Z,98625.36
2019-02-25T14:53:06.576Z,98617.19
2019-02-25T14:56:03.911Z,98617.49
2019-02-25T14:58:56.163Z,98619.98
2019-02-25T15:01:52.979Z,98617.97
2019-02-25T15:04:48.476Z,98618.53
2019-02-25T15:07:44.979Z,98611.89
2019-02-25T15:10:42.832Z,98614.13
2019-02-25T15:13:39.077Z,98613.24
2019-02-25T15:16:33.197Z,98619.84
2019-02-25T15:19:31.994Z,98619.59
2019-02-25T15:22:28.103Z,98612.42
2019-02-25T15:25:21.960Z,98615.34
2019-02-25T15:31:11.317Z,98603.59
2019-02-25T15:34:06.562Z,98606.70
2019-02-25T15:37:02.597Z,98604.97
2019-02-25T15:39:59.066Z,98594.34
2019-02-25T15:42:54.457Z,98586.83
2019-02-25T15:45:50.919Z,98595.19
2019-02-25T15:48:46.695Z,98598.50
2019-02-25T15:51:45.170Z,98597.41
2019-02-25T15:54:39.370Z,98598.64
2019-02-25T15:57:37.758Z,98595.98
2019-02-25T16:00:34.967Z,98601.31
2019-02-25T16:03:32.268Z,98602.33
2019-02-25T16:06:29.205Z,98609.89
2019-02-25T16:09:25.528Z,98610.20
2019-02-25T16:12:23.191Z,98609.77
2019-02-25T16:15:17.406Z,98602.41
2019-02-25T16:18:14.126Z,98599.48
2019-02-25T16:21:11.174Z,98600.77
2019-02-25T16:24:08.252Z,98598.59
2019-02-25T16:27:02.655Z,98607.44
2019-02-25T16:30:00.248Z,98611.13
2019-02-25T16:32:54.692Z,98612.37
2019-02-25T16:35:52.484Z,98621.19
2019-02-25T16:38:51.240Z,98618.13
2019-02-25T16:41:45.741Z,98623.64
2019-02-25T16:44:40.467Z,98632.47
2019-02-25T16:47:37.703Z,98634.11
2019-02-25T16:50:34.837Z,98638.63
2019-02-25T16:53:34.658Z,98641.91
2019-02-25T16:56:26.131Z,98647.67
2019-02-25T16:59:24.940Z,98642.39
2019-02-25T17:02:19.493Z,98641.90
2019-02-25T17:05:14.259Z,98650.31
2019-02-25T17:08:12.558Z,98650.26
2019-02-25T17:11:06.486Z,98657.50
2019-02-25T17:14:03.822Z,98645.89
2019-02-25T17:16:58.820Z,98635.66
2019-02-25T17:19:56.222Z,98641.63
2019-02-25T17:22:51.961Z,98646.65
2019-02-25T17:25:48.440Z,98649.02
2019-02-25T17:28:44.576Z,98646.79
2019-02-25T17:31:41.236Z,98643.27
2019-02-25T17:34:37.554Z,98650.66
2019-02-25T17:37:36.084Z,98646.86
2019-02-25T17:40:29.423Z,98643.98
2019-02-25T17:43:27.335Z,98654.95
2019-02-25T17:46:22.884Z,98660.54
2019-02-25T17:49:21.671Z,98660.61
2019-02-25T17:52:18.421Z,98659.25
2019-02-25T17:55:14.149Z,98658.70
2019-02-25T17:58:09.703Z,98666.60
2019-02-25T18:01:06.221Z,98666.52
2019-02-25T18:04:02.580Z,98668.13
2019-02-25T18:06:58.241Z,98672.60
2019-02-25T18:09:55.853Z,98671.95
2019-02-25T18:12:51.479Z,98672.20
2019-02-25T18:15:49.863Z,98676.73
2019-02-25T18:18:45.107Z,98669.33
2019-02-25T18:21:43.019Z,98668.03
2019-02-25T18:24:37.000Z,98665.05
2019-02-25T18:27:35.236Z,98667.17
2019-02-25T18:30:32.264Z,98672.20
2019-02-25T18:33:29.163Z,98662.05
2019-02-25T18:36:26.456Z,98665.53
2019-02-25T18:39:25.257Z,98661.80
2019-02-25T18:42:20.339Z,98665.67
2019-02-25T18:45:16.054Z,98665.19
2019-02-25T18:48:11.248Z,98654.61
2019-02-25T18:51:09.119Z,98655.08
2019-02-25T18:54:04.324Z,98652.22
2019-02-25T18:57:01.716Z,98646.69
2019-02-25T18:59:59.277Z,98647.64
2019-02-25T19:02:54.101Z,98659.59
2019-02-25T19:05:51.041Z,98651.69
2019-02-25T19:08:47.203Z,98662.70
2019-02-25T19:11:45.049Z,98664.95
2019-02-25T19:14:39.170Z,98648.00
2019-02-25T19:17:35.741Z,98663.91
2019-02-25T19:20:32.370Z,98661.08
2019-02-25T19:23:28.903Z,98665.08
2019-02-25T19:26:25.737Z,98667.66
2019-02-25T19:29:21.795Z,98672.75
2019-02-25T19:32:17.632Z,98681.50
2019-02-25T19:35:13.744Z,98684.45
2019-02-25T19:38:13.303Z,98685.98
2019-02-25T19:41:13.051Z,98686.50
2019-02-25T19:44:05.947Z,98690.32
2019-02-25T19:47:01.933Z,98694.90
2019-02-25T19:49:59.642Z,98698.88
2019-02-25T19:52:54.163Z,98691.84
2019-02-25T19:55:53.215Z,98689.95
2019-02-25T19:58:45.819Z,98684.72
2019-02-25T20:01:42.458Z,98692.00
2019-02-25T20:04:42.287Z,98687.95
2019-02-25T20:07:36.987Z,98686.34
2019-02-25T20:10:34.712Z,98691.95
2019-02-25T20:13:30.295Z,98691.23
2019-02-25T20:16:29.838Z,98694.91
2019-02-25T20:19:22.727Z,98695.52
2019-02-25T20:22:20.103Z,98689.31
2019-02-25T20:25:16.801Z,98695.03
2019-02-25T20:28:11.627Z,98691.20
2019-02-25T20:31:10.033Z,98691.31
2019-02-25T20:34:06.253Z,98699.42
2019-02-25T20:37:03.851Z,98693.53
2019-02-25T20:40:00.603Z,98697.87
2019-02-25T20:42:57.774Z,98704.26
2019-02-25T20:45:54.051Z,98706.88
2019-02-25T20:48:48.619Z,98710.23
2019-02-25T20:51:45.635Z,98709.09
2019-02-25T20:54:43.721Z,98708.40
2019-02-25T20:57:38.172Z,98701.16
2019-02-25T21:00:39.069Z,98696.92
2019-02-25T21:03:32.088Z,98690.05
2019-02-25T21:06:28.550Z,98688.70
2019-02-25T21:09:24.115Z,98686.30
2019-02-25T21:12:21.814Z,98695.64
2019-02-25T21:15:16.585Z,98697.47
2019-02-25T21:18:13.274Z,98694.02
2019-02-25T21:21:13.493Z,98695.33
2019-02-25T21:24:08.752Z,98700.73
2019-02-25T21:27:06.377Z,98702.45
2019-02-25T21:30:01.436Z,98701.47
2019-02-25T21:32:58.922Z,98698.17
2019-02-25T21:35:52.871Z,98704.72
2019-02-25T21:38:51.524Z,98707.23
2019-02-25T21:41:45.980Z,98696.22
2019-02-25T21:44:46.110Z,98704.03
2019-02-25T21:47:38.758Z,98700.45
2019-02-25T21:50:36.033Z,98703.36
2019-02-25T21:53:31.822Z,98695.89
2019-02-25T21:56:28.657Z,98691.47
2019-02-25T21:59:25.461Z,98692.50
2019-02-25T22:02:21.000Z,98695.28
2019-02-25T22:05:19.014Z,98697.13
2019-02-25T22:08:13.412Z,98695.37
2019-02-25T22:11:14.444Z,98696.70
2019-02-25T22:14:06.632Z,98692.75
2019-02-25T22:17:03.376Z,98688.76
2019-02-25T22:19:58.923Z,98692.13
2019-02-25T22:22:59.099Z,98699.72
2019-02-25T22:25:52.697Z,98687.55
2019-02-25T22:28:51.002Z,98688.20
2019-02-25T22:31:45.593Z,98685.39
2019-02-25T22:34:42.079Z,98687.67
2019-02-25T22:37:38.539Z,98688.35
2019-02-25T22:40:36.660Z,98688.02
2019-02-25T22:43:31.878Z,98695.33
2019-02-25T22:46:30.081Z,98698.58
2019-02-25T22:49:26.680Z,98698.89
2019-02-25T22:52:22.169Z,98705.89
2019-02-25T22:55:18.481Z,98706.67
2019-02-25T22:58:13.333Z,98711.88
2019-02-25T23:01:09.283Z,98715.91
2019-02-25T23:04:04.795Z,98716.79
2019-02-25T23:07:02.594Z,98716.69
2019-02-25T23:09:58.099Z,98727.45
2019-02-25T23:12:54.844Z,98722.52
2019-02-25T23:15:51.223Z,98721.59
2019-02-25T23:18:47.793Z,98714.42
2019-02-25T23:21:41.605Z,98723.25
2019-02-25T23:24:42.051Z,98722.34
2019-02-25T23:27:36.620Z,98724.87
2019-02-25T23:30:32.740Z,98714.27
2019-02-25T23:33:28.576Z,98715.95
2019-02-25T23:36:26.440Z,98709.33
2019-02-25T23:39:20.911Z,98719.44
2019-02-25T23:42:18.012Z,98725.22
2019-02-25T23:45:15.489Z,98720.48
2019-02-25T23:48:11.790Z,98726.25
2019-02-25T23:51:07.181Z,98729.88
2019-02-25T23:54:03.723Z,98736.42
2019-02-25T23:57:01.893Z,98742.17
2019-02-25T23:59:55.728Z,98737.53
